Time;durP1;ratioP1;P1;durP2;ratioP2;P2;SDS_P1;SDS_P2;PMS_P1;PMS_P2;Temp;Humidity;BMP_temperature;BMP_pressure;BME280_temperature;BME280_humidity;BME280_pressure;Samples;Min_cycle;Max_cycle;Signal;HPM_P1;HPM_P2
2023/05/27 00:02:16;;;;;;;20.27;11.48;;;;;;;17.83;71.41;151762.34;5083066;28;20256;-72
2023/05/27 00:04:42;;;;;;;16.48;10.98;;;;;;;17.77;71.81;151749.47;5083013;28;20272;-72
2023/05/27 00:07:07;;;;;;;15.98;11.45;;;;;;;17.34;71.38;151641.19;5081796;28;20028;-72
2023/05/27 00:09:33;;;;;;;16.27;11.35;;;;;;;17.74;71.91;151741.75;5083009;28;20028;-72
2023/05/27 00:11:59;;;;;;;13.63;10.80;;;;;;;17.82;71.44;151759.81;5083002;28;20021;-72
2023/05/27 00:14:25;;;;;;;13.40;10.88;;;;;;;17.68;71.41;151726.25;5083037;28;20068;-75
2023/05/27 00:16:51;;;;;;;13.77;10.82;;;;;;;17.55;72.02;151692.75;5081873;28;20516;-76
2023/05/27 00:19:17;;;;;;;13.27;10.73;;;;;;;17.80;72.49;151754.63;5081974;28;20025;-75
2023/05/27 00:21:43;;;;;;;13.07;10.85;;;;;;;17.72;72.40;151736.56;5078697;28;20261;-76
2023/05/27 00:24:10;;;;;;;14.05;11.40;;;;;;;17.73;72.85;151737.91;5078668;28;20033;-74
2023/05/27 00:26:35;;;;;;;12.38;11.13;;;;;;;17.62;73.33;151710.81;5077436;28;20044;-75
2023/05/27 00:29:01;;;;;;;12.18;10.70;;;;;;;17.24;72.85;151616.72;5077008;28;20037;-75
2023/05/27 00:31:27;;;;;;;20.77;11.35;;;;;;;17.51;73.48;151683.72;5081786;28;20091;-75
2023/05/27 00:33:52;;;;;;;12.90;11.27;;;;;;;17.71;73.36;151732.72;5082869;28;20028;-75
2023/05/27 00:36:18;;;;;;;12.93;10.32;;;;;;;17.20;72.87;151605.09;5082941;28;20062;-74
2023/05/27 00:38:44;;;;;;;13.02;10.25;;;;;;;17.43;73.21;151663.13;5083172;28;20089;-74
2023/05/27 00:41:12;;;;;;;18.73;11.45;;;;;;;17.50;73.98;151679.84;5082680;28;20158;-75
2023/05/27 00:43:38;;;;;;;15.95;11.30;;;;;;;17.44;75.36;151665.66;5082987;28;20092;-75
2023/05/27 00:46:04;;;;;;;15.40;11.07;;;;;;;17.49;74.27;151677.31;5081304;28;20218;-74
2023/05/27 00:48:29;;;;;;;12.73;10.70;;;;;;;17.62;73.82;151709.53;5082744;28;20032;-73
2023/05/27 00:50:55;;;;;;;12.65;10.63;;;;;;;17.64;74.45;151714.66;5082466;28;20055;-73
2023/05/27 00:53:23;;;;;;;12.25;10.57;;;;;;;17.64;74.42;151715.94;5082747;28;20025;-75
2023/05/27 00:55:52;;;;;;;16.27;11.15;;;;;;;17.65;74.22;151718.53;5082647;28;20024;-73
2023/05/27 00:58:21;;;;;;;11.10;9.95;;;;;;;17.67;73.70;151723.72;5098437;28;20228;-74
2023/05/27 01:00:48;;;;;;;13.32;9.50;;;;;;;17.68;73.78;151726.25;5082721;28;20024;-75
2023/05/27 01:03:15;;;;;;;11.00;9.73;;;;;;;17.67;74.31;151723.72;5081464;28;20025;-74
2023/05/27 01:05:41;;;;;;;13.07;9.80;;;;;;;17.64;74.34;151714.66;5082920;28;20308;-74
2023/05/27 01:08:20;;;;;;;13.80;10.13;;;;;;;17.57;75.85;151697.88;5082769;28;20092;-72
2023/05/27 01:10:56;;;;;;;15.65;10.05;;;;;;;17.56;76.19;151695.34;5082667;28;20036;-73
2023/05/27 01:13:35;;;;;;;16.13;9.60;;;;;;;17.56;75.47;151695.34;5084647;28;20259;-73
2023/05/27 01:16:04;;;;;;;14.38;10.30;;;;;;;17.47;75.91;151672.13;5086043;28;20060;-74
2023/05/27 01:18:33;;;;;;;10.93;9.23;;;;;;;17.54;75.97;151690.16;5085005;28;20051;-75
2023/05/27 01:21:07;;;;;;;11.45;9.68;;;;;;;17.47;76.67;151673.41;5086232;28;20056;-75
2023/05/27 01:23:32;;;;;;;10.50;9.45;;;;;;;17.42;76.19;151660.53;5086219;28;20059;-74
2023/05/27 01:25:59;;;;;;;15.00;9.85;;;;;;;17.52;75.69;151685.03;5086061;28;20217;-75
2023/05/27 01:28:24;;;;;;;11.35;9.52;;;;;;;17.47;76.79;151672.13;5070859;28;20021;-79
2023/05/27 01:30:54;;;;;;;10.55;9.10;;;;;;;17.48;76.54;151675.97;5097495;28;20047;-81
2023/05/27 01:33:26;;;;;;;16.63;9.73;;;;;;;17.18;76.53;151601.22;5095014;28;20082;-78
2023/05/27 01:35:58;;;;;;;10.95;9.68;;;;;;;17.46;76.58;151670.84;5065889;28;20036;-78
2023/05/27 01:38:26;;;;;;;11.45;10.40;;;;;;;16.90;77.78;151530.34;5082543;28;20056;-78
2023/05/27 01:40:53;;;;;;;13.93;9.43;;;;;;;17.43;77.83;151664.41;5085665;28;20032;-78
2023/05/27 01:43:19;;;;;;;12.82;10.02;;;;;;;17.49;77.56;151678.56;5085666;28;20236;-76
2023/05/27 01:45:45;;;;;;;14.40;11.35;;;;;;;17.43;78.72;151663.13;5085804;28;20028;-77
2023/05/27 01:48:11;;;;;;;12.68;10.05;;;;;;;17.51;78.64;151683.72;5084295;28;20028;-77
2023/05/27 01:50:36;;;;;;;11.88;9.88;;;;;;;17.48;78.32;151674.72;5084080;28;20108;-76
2023/05/27 01:53:03;;;;;;;12.07;10.20;;;;;;;17.50;78.96;151679.84;5084821;28;20044;-77
2023/05/27 01:55:30;;;;;;;11.45;10.32;;;;;;;17.45;78.64;151667.00;5085390;28;20091;-76
2023/05/27 01:57:56;;;;;;;11.68;10.10;;;;;;;17.43;79.20;151664.41;5084955;28;20222;-75
2023/05/27 02:00:24;;;;;;;12.43;11.05;;;;;;;17.43;79.69;151664.41;5084240;28;20024;-73
2023/05/27 02:02:50;;;;;;;17.45;10.52;;;;;;;17.33;80.04;151638.63;5080565;28;20163;-76
2023/05/27 02:05:15;;;;;;;14.50;9.95;;;;;;;17.26;79.71;151620.59;5080734;28;20037;-75
2023/05/27 02:07:41;;;;;;;12.27;9.63;;;;;;;17.32;78.97;151636.03;5085332;28;20067;-76
2023/05/27 02:10:07;;;;;;;13.60;10.18;;;;;;;17.30;77.66;151629.59;5084976;28;20331;-75
2023/05/27 02:12:33;;;;;;;9.68;8.77;;;;;;;17.48;78.16;151674.72;5084904;28;20039;-75
2023/05/27 02:14:59;;;;;;;10.30;9.30;;;;;;;17.27;77.95;151623.13;5085058;28;20020;-73
2023/05/27 02:17:24;;;;;;;11.20;9.20;;;;;;;17.45;78.56;151667.00;5085067;28;20309;-75
2023/05/27 02:19:51;;;;;;;10.50;9.40;;;;;;;17.35;77.87;151643.75;5084478;28;20213;-73
2023/05/27 02:22:17;;;;;;;11.02;9.32;;;;;;;17.18;78.19;151599.97;5083283;28;20024;-75
2023/05/27 02:24:43;;;;;;;10.30;9.30;;;;;;;17.36;77.60;151645.09;5100352;28;20193;-76
2023/05/27 02:27:09;;;;;;;10.65;9.18;;;;;;;17.03;78.42;151563.88;5084898;28;20056;-75
2023/05/27 02:29:34;;;;;;;10.52;9.50;;;;;;;17.43;78.64;151664.41;5084769;28;20316;-76
2023/05/27 02:32:00;;;;;;;13.50;9.70;;;;;;;16.87;77.94;151522.59;5084702;28;20297;-76
2023/05/27 02:34:26;;;;;;;10.13;9.10;;;;;;;17.35;78.15;151643.75;5084655;28;20309;-76
2023/05/27 02:36:51;;;;;;;10.48;9.38;;;;;;;17.21;79.25;151607.69;5083313;28;20024;-76
2023/05/27 02:39:17;;;;;;;11.43;9.52;;;;;;;17.29;77.94;151627.00;5084943;28;20084;-77
2023/05/27 02:41:43;;;;;;;10.73;9.68;;;;;;;17.45;77.80;151668.25;5084722;28;20029;-77
2023/05/27 02:44:08;;;;;;;10.20;9.13;;;;;;;17.46;78.60;151670.84;5084282;28;20029;-79
2023/05/27 02:46:34;;;;;;;12.13;9.77;;;;;;;17.33;78.96;151638.63;5084364;28;20225;-78
2023/05/27 02:49:00;;;;;;;11.30;10.15;;;;;;;17.25;78.10;151618.00;5084242;28;20025;-74
2023/05/27 02:51:28;;;;;;;11.05;9.27;;;;;;;16.87;77.43;151522.59;5084624;28;20020;-76
2023/05/27 02:53:54;;;;;;;13.23;9.15;;;;;;;17.34;75.19;151639.91;5064297;28;20054;-75
2023/05/27 02:56:19;;;;;;;9.50;8.60;;;;;;;17.29;73.95;151627.00;5079563;28;20036;-76
2023/05/27 02:58:45;;;;;;;9.02;8.23;;;;;;;17.16;73.13;151594.78;5083156;28;20032;-75
2023/05/27 03:01:11;;;;;;;10.45;7.38;;;;;;;17.36;72.36;151646.34;5084055;28;20028;-76
2023/05/27 03:03:36;;;;;;;8.30;7.45;;;;;;;17.31;71.59;151632.19;5084385;28;20028;-75
2023/05/27 03:06:03;;;;;;;7.47;6.75;;;;;;;17.41;71.52;151659.25;5084127;28;20051;-74
2023/05/27 03:08:28;;;;;;;7.60;6.88;;;;;;;17.45;70.91;151667.00;5082137;28;20055;-75
2023/05/27 03:10:54;;;;;;;8.40;7.63;;;;;;;17.48;70.02;151674.72;5099581;28;20040;-75
2023/05/27 03:13:20;;;;;;;8.75;7.78;;;;;;;17.39;70.26;151654.06;5091386;28;20032;-75
2023/05/27 03:15:45;;;;;;;9.38;7.03;;;;;;;17.29;70.50;151628.31;5100900;28;20091;-74
2023/05/27 03:18:11;;;;;;;10.73;7.03;;;;;;;17.25;70.21;151619.28;5084257;28;20028;-74
2023/05/27 03:20:36;;;;;;;10.35;6.82;;;;;;;17.08;69.69;151575.47;5101809;28;20228;-76
2023/05/27 03:23:02;;;;;;;7.75;6.80;;;;;;;17.07;69.03;151574.19;5091094;28;20262;-77
2023/05/27 03:25:28;;;;;;;8.52;6.47;;;;;;;16.66;68.71;151471.06;5091679;28;20229;-76
2023/05/27 03:27:54;;;;;;;7.53;6.82;;;;;;;17.41;70.07;151659.25;5098351;28;20300;-79
2023/05/27 03:30:20;;;;;;;7.63;6.85;;;;;;;17.34;68.93;151641.19;5104037;28;20161;-78
2023/05/27 03:32:46;;;;;;;8.70;6.40;;;;;;;17.31;68.30;151633.44;5085251;28;20021;-81
2023/05/27 03:35:12;;;;;;;7.38;6.18;;;;;;;17.48;68.04;151674.72;5098805;28;20028;-73
2023/05/27 03:37:37;;;;;;;8.98;6.65;;;;;;;17.46;69.31;151669.53;5093253;28;20235;-74
2023/05/27 03:40:06;;;;;;;7.00;6.40;;;;;;;17.65;67.88;151717.25;5097009;28;20052;-73
2023/05/27 03:42:31;;;;;;;8.38;6.40;;;;;;;17.56;67.56;151695.34;5083610;28;20420;-75
2023/05/27 03:44:57;;;;;;;9.63;6.57;;;;;;;17.75;66.87;151744.31;5074141;28;20032;-77
2023/05/27 03:47:23;;;;;;;8.05;6.75;;;;;;;17.79;67.32;151753.34;5079009;28;20024;-77
2023/05/27 03:49:48;;;;;;;7.40;6.32;;;;;;;17.81;66.99;151757.22;5094443;28;20285;-78
2023/05/27 03:52:15;;;;;;;7.55;6.75;;;;;;;17.62;66.50;151710.81;5096515;28;20282;-78
2023/05/27 03:54:41;;;;;;;7.47;6.20;;;;;;;17.54;65.91;151690.16;5084582;28;20032;-76
2023/05/27 03:57:07;;;;;;;7.22;5.82;;;;;;;17.68;65.51;151726.25;5119191;28;20259;-76
2023/05/27 03:59:33;;;;;;;8.60;6.30;;;;;;;17.70;66.41;151731.44;5102353;28;20028;-76
2023/05/27 04:01:59;;;;;;;7.03;5.75;;;;;;;17.53;65.95;151688.91;5086362;28;20021;-74
2023/05/27 04:04:24;;;;;;;6.35;5.85;;;;;;;17.80;65.28;151754.63;5090231;28;20036;-76
2023/05/27 04:06:50;;;;;;;6.25;5.65;;;;;;;18.06;65.55;151821.72;5100861;28;20036;-76
2023/05/27 04:09:16;;;;;;;6.32;5.72;;;;;;;18.15;65.61;151843.66;5082080;28;20093;-75
2023/05/27 04:11:42;;;;;;;7.18;5.38;;;;;;;18.09;66.25;151828.19;5101094;28;20036;-79
2023/05/27 04:14:07;;;;;;;9.05;5.93;;;;;;;18.09;66.56;151828.19;5088962;28;20099;-76
2023/05/27 04:16:33;;;;;;;8.38;6.22;;;;;;;18.03;66.19;151814.00;5091445;28;20085;-75
2023/05/27 04:19:00;;;;;;;6.30;5.68;;;;;;;18.07;65.20;151824.31;5099723;28;20035;-79
2023/05/27 04:21:26;;;;;;;6.50;5.90;;;;;;;18.16;65.00;151846.22;5083395;28;20029;-74
2023/05/27 04:23:52;;;;;;;9.20;5.70;;;;;;;18.04;66.26;151816.59;5102338;28;20048;-75
2023/05/27 04:26:18;;;;;;;8.20;5.80;;;;;;;18.08;64.70;151826.88;5088752;28;20025;-75
2023/05/27 04:28:45;;;;;;;7.68;5.47;;;;;;;18.26;63.98;151870.75;5108593;28;20030;-76
2023/05/27 04:31:12;;;;;;;5.78;5.15;;;;;;;18.39;64.20;151902.97;5098109;28;20032;-78
2023/05/27 04:33:39;;;;;;;5.97;5.35;;;;;;;18.42;63.45;151910.72;5083553;28;20036;-78
2023/05/27 04:36:06;;;;;;;6.75;5.15;;;;;;;18.28;63.11;151877.19;5103596;28;20061;-78
2023/05/27 04:38:32;;;;;;;8.65;5.20;;;;;;;18.40;62.50;151905.56;5087027;28;20095;-77
2023/05/27 04:40:58;;;;;;;7.78;5.43;;;;;;;18.34;61.46;151891.38;5082857;28;20077;-75
2023/05/27 04:43:26;;;;;;;9.25;5.30;;;;;;;18.48;60.26;151926.19;5089933;28;20030;-78
2023/05/27 04:45:53;;;;;;;6.50;5.03;;;;;;;18.31;60.46;151883.63;5098220;28;20036;-77
2023/05/27 04:48:19;;;;;;;5.55;5.05;;;;;;;18.15;59.58;151842.38;5084508;28;20052;-79
2023/05/27 04:50:45;;;;;;;9.07;4.82;;;;;;;18.36;59.77;151896.53;5105125;28;20373;-78
2023/05/27 04:53:11;;;;;;;5.28;4.80;;;;;;;18.54;60.54;151941.69;5102700;28;20037;-79
2023/05/27 04:55:38;;;;;;;8.57;5.00;;;;;;;18.54;59.16;151940.38;5095987;28;20364;-79
2023/05/27 04:58:05;;;;;;;8.23;5.10;;;;;;;18.56;57.35;151945.56;5107308;28;20028;-79
2023/05/27 05:00:49;;;;;;;6.22;4.90;;;;;;;18.61;56.37;151958.41;5091464;28;20025;-78
2023/05/27 05:03:20;;;;;;;8.75;4.40;;;;;;;18.63;56.19;151963.59;5084991;28;20095;-77
2023/05/27 05:05:53;;;;;;;6.85;4.07;;;;;;;18.96;55.71;152047.50;5103576;28;20044;-78
2023/05/27 05:08:20;;;;;;;6.47;4.70;;;;;;;19.05;55.86;152069.41;5092535;28;20043;-78
2023/05/27 05:10:51;;;;;;;6.43;4.75;;;;;;;19.06;55.55;152072.03;5087194;28;20039;-76
2023/05/27 05:13:16;;;;;;;7.40;4.55;;;;;;;19.06;54.25;152072.03;5086277;28;20032;-73
2023/05/27 05:15:45;;;;;;;5.82;4.55;;;;;;;19.24;54.15;152117.19;5087192;28;20213;-75
2023/05/27 05:18:12;;;;;;;9.70;4.97;;;;;;;19.19;54.04;152103.00;5107374;28;20028;-74
2023/05/27 05:20:37;;;;;;;17.08;5.10;;;;;;;19.41;53.56;152159.78;5104396;28;20036;-74
2023/05/27 05:23:03;;;;;;;4.85;4.35;;;;;;;19.80;52.96;152256.66;5094097;28;20078;-74
2023/05/27 05:25:35;;;;;;;7.07;4.50;;;;;;;19.56;51.12;152197.19;5086023;28;20020;-75
2023/05/27 05:28:00;;;;;;;5.47;4.05;;;;;;;19.44;50.84;152167.53;5089156;28;20043;-75
2023/05/27 05:30:26;;;;;;;5.50;3.67;;;;;;;19.51;49.90;152183.00;5094416;28;20025;-74
2023/05/27 05:32:52;;;;;;;7.22;4.00;;;;;;;19.92;51.21;152286.34;5098318;28;20439;-73
2023/05/27 05:35:17;;;;;;;7.13;4.05;;;;;;;19.99;50.33;152304.41;5090195;28;20126;-75
2023/05/27 05:37:43;;;;;;;6.57;3.78;;;;;;;19.73;51.89;152239.81;5086638;28;20035;-76
2023/05/27 05:40:10;;;;;;;8.70;4.10;;;;;;;19.92;51.09;152286.34;5086172;28;20017;-76
2023/05/27 05:42:36;;;;;;;8.65;3.65;;;;;;;19.89;49.51;152279.88;5086563;28;20435;-75
2023/05/27 05:45:03;;;;;;;9.23;3.40;;;;;;;19.88;48.38;152276.00;5085988;28;20087;-75
2023/05/27 05:47:29;;;;;;;4.47;3.30;;;;;;;19.59;47.59;152203.66;5086690;28;20048;-75
2023/05/27 05:49:55;;;;;;;7.57;3.40;;;;;;;19.58;47.82;152201.06;5104433;28;20021;-75
2023/05/27 05:52:20;;;;;;;4.65;3.20;;;;;;;19.77;47.61;152248.88;5097348;28;20036;-75
2023/05/27 05:54:46;;;;;;;5.05;3.08;;;;;;;19.73;47.39;152238.53;5099154;28;20025;-77
2023/05/27 05:57:12;;;;;;;5.70;3.30;;;;;;;19.49;46.05;152180.41;5098990;28;20041;-78
2023/05/27 05:59:37;;;;;;;7.93;3.47;;;;;;;19.54;47.42;152192.06;5116162;28;20012;-76
2023/05/27 06:02:03;;;;;;;4.97;3.00;;;;;;;19.79;46.31;152255.34;5108645;28;20009;-78
2023/05/27 06:04:29;;;;;;;8.23;3.45;;;;;;;19.93;47.39;152288.94;5101884;28;20048;-78
2023/05/27 06:06:54;;;;;;;4.93;3.05;;;;;;;19.89;46.28;152278.59;5089454;28;20035;-78
2023/05/27 06:09:20;;;;;;;5.05;3.08;;;;;;;19.89;46.56;152278.59;5106848;28;20028;-79
2023/05/27 06:11:46;;;;;;;5.30;2.88;;;;;;;19.98;45.63;152303.13;5088947;28;20319;-81
2023/05/27 06:14:11;;;;;;;6.55;2.97;;;;;;;19.81;44.00;152259.25;5085056;28;20059;-75
2023/05/27 06:16:39;;;;;;;5.07;2.90;;;;;;;19.82;43.66;152263.13;5092327;28;20363;-79
2023/05/27 06:19:05;;;;;;;4.25;2.80;;;;;;;19.93;45.16;152288.94;5102389;28;20031;-76
2023/05/27 06:21:32;;;;;;;5.43;3.00;;;;;;;20.08;44.12;152327.66;5101020;28;20201;-81
2023/05/27 06:23:59;;;;;;;7.40;3.60;;;;;;;20.09;44.06;152328.94;5104504;28;20028;-80
2023/05/27 06:26:25;;;;;;;6.68;3.17;;;;;;;19.93;42.71;152288.94;5091058;28;20293;-79
2023/05/27 06:28:51;;;;;;;7.70;3.20;;;;;;;20.10;43.16;152332.81;5094618;28;20316;-79
2023/05/27 06:31:16;;;;;;;6.07;3.33;;;;;;;20.29;43.74;152379.31;5099338;28;20032;-77
2023/05/27 06:33:42;;;;;;;5.30;3.20;;;;;;;19.87;42.54;152273.44;5084913;28;20036;-76
2023/05/27 06:36:08;;;;;;;4.30;2.97;;;;;;;19.92;43.54;152286.34;5080391;28;20109;-77
2023/05/27 06:38:33;;;;;;;4.65;2.85;;;;;;;20.21;44.91;152358.63;5094509;28;20500;-77
2023/05/27 06:40:59;;;;;;;9.05;3.65;;;;;;;20.22;43.31;152362.50;5089908;28;20025;-80
2023/05/27 06:43:24;;;;;;;5.22;3.20;;;;;;;20.29;44.30;152380.56;5087293;28;20069;-79
2023/05/27 06:45:50;;;;;;;6.82;3.42;;;;;;;20.44;44.21;152418.06;5104052;28;20040;-73
2023/05/27 06:48:16;;;;;;;5.47;3.05;;;;;;;20.24;41.95;152366.41;5084420;28;20028;-69
2023/05/27 06:50:41;;;;;;;6.13;4.60;;;;;;;20.37;43.29;152398.69;5100418;28;20031;-67
2023/05/27 06:53:07;;;;;;;5.65;2.97;;;;;;;20.32;41.12;152388.38;5092471;28;20036;-67
2023/05/27 06:55:33;;;;;;;4.65;2.90;;;;;;;20.62;43.02;152463.28;5084535;28;20028;-67
2023/05/27 06:57:58;;;;;;;7.43;3.05;;;;;;;20.68;42.49;152478.81;5086371;28;20028;-67
2023/05/27 07:00:24;;;;;;;8.82;3.03;;;;;;;20.44;39.65;152418.06;5104679;28;20028;-68
2023/05/27 07:02:49;;;;;;;6.35;2.88;;;;;;;20.59;39.75;152455.50;5087083;28;20091;-66
2023/05/27 07:05:15;;;;;;;6.38;3.08;;;;;;;20.27;40.10;152374.16;5096235;28;20040;-67
2023/05/27 07:07:40;;;;;;;7.35;2.70;;;;;;;19.92;38.51;152287.59;5096548;28;20043;-70
2023/05/27 07:10:07;;;;;;;6.05;2.88;;;;;;;20.28;39.21;152378.03;5086532;28;20036;-73
2023/05/27 07:12:32;;;;;;;4.82;2.63;;;;;;;20.41;39.62;152410.31;5104376;28;20020;-76
2023/05/27 07:14:58;;;;;;;7.50;3.17;;;;;;;20.64;39.82;152468.44;5085710;28;20300;-73
2023/05/27 07:17:23;;;;;;;8.57;3.30;;;;;;;20.79;42.86;152504.63;5097784;28;20070;-73
2023/05/27 07:19:49;;;;;;;5.97;2.88;;;;;;;20.86;40.48;152522.72;5095131;28;20060;-73
2023/05/27 07:22:15;;;;;;;8.68;3.22;;;;;;;20.62;37.77;152461.97;5088076;28;20043;-76
2023/05/27 07:24:40;;;;;;;10.85;3.15;;;;;;;20.61;40.19;152459.41;5104152;28;20032;-72
2023/05/27 07:27:06;;;;;;;8.60;3.25;;;;;;;20.48;38.26;152428.41;5084256;28;20439;-69
2023/05/27 07:29:33;;;;;;;7.68;3.00;;;;;;;20.49;37.58;152431.00;5097196;28;20024;-66
2023/05/27 07:31:59;;;;;;;5.60;3.00;;;;;;;20.63;37.73;152464.56;5090600;28;20087;-68
2023/05/27 07:34:24;;;;;;;8.05;2.90;;;;;;;20.80;38.09;152507.25;5098402;28;20043;-71
2023/05/27 07:36:50;;;;;;;7.47;3.05;;;;;;;20.89;37.69;152529.19;5084492;28;20031;-69
2023/05/27 07:39:15;;;;;;;6.35;2.78;;;;;;;21.10;38.62;152583.47;5103504;28;20034;-69
2023/05/27 07:41:41;;;;;;;7.70;3.42;;;;;;;21.08;37.76;152578.31;5083511;28;20317;-68
2023/05/27 07:44:07;;;;;;;9.00;3.28;;;;;;;20.82;36.03;152512.38;5083719;28;20082;-69
2023/05/27 07:46:33;;;;;;;4.95;2.78;;;;;;;20.75;36.55;152495.63;5089923;28;20062;-68
2023/05/27 07:48:59;;;;;;;6.93;3.13;;;;;;;20.99;36.69;152555.03;5102042;28;20050;-69
2023/05/27 07:51:25;;;;;;;4.97;2.53;;;;;;;20.86;33.42;152522.72;5083920;28;20089;-68
2023/05/27 07:53:51;;;;;;;8.65;2.92;;;;;;;20.71;31.54;152485.28;5083137;28;20337;-68
2023/05/27 07:56:16;;;;;;;5.82;3.05;;;;;;;20.55;31.73;152443.88;5083367;28;20024;-69
2023/05/27 07:58:42;;;;;;;4.85;3.10;;;;;;;20.74;33.71;152493.03;5090711;28;20036;-69
2023/05/27 08:01:07;;;;;;;5.80;2.85;;;;;;;20.80;33.18;152507.25;5116149;28;20055;-69
2023/05/27 08:03:33;;;;;;;8.20;2.90;;;;;;;20.82;31.44;152512.38;5083455;28;20021;-69
2023/05/27 08:05:59;;;;;;;7.28;2.92;;;;;;;20.52;30.98;152437.41;5101379;28;20360;-67
2023/05/27 08:08:24;;;;;;;6.00;3.10;;;;;;;20.70;32.63;152482.69;5088729;28;20060;-68
2023/05/27 08:10:51;;;;;;;10.10;2.92;;;;;;;20.80;32.19;152508.50;5091942;28;20112;-68
2023/05/27 08:13:17;;;;;;;6.15;2.60;;;;;;;21.21;33.18;152611.88;5099504;28;20096;-68
2023/05/27 08:15:42;;;;;;;7.85;3.33;;;;;;;21.10;30.59;152583.47;5083533;28;20039;-68
2023/05/27 08:18:08;;;;;;;6.82;2.80;;;;;;;21.03;30.35;152565.38;5091702;28;20070;-69
2023/05/27 08:20:33;;;;;;;7.65;3.08;;;;;;;21.25;30.49;152620.94;5083208;28;20082;-68
2023/05/27 08:22:59;;;;;;;8.27;3.13;;;;;;;21.18;30.03;152602.88;5086737;28;20024;-67
2023/05/27 08:25:25;;;;;;;7.30;2.58;;;;;;;21.37;29.75;152650.66;5086868;28;20040;-69
2023/05/27 08:27:53;;;;;;;5.57;2.97;;;;;;;21.24;30.70;152617.09;5087141;28;20221;-67
2023/05/27 08:30:19;;;;;;;4.80;2.55;;;;;;;21.37;31.44;152650.66;5107857;28;20026;-68
2023/05/27 08:32:45;;;;;;;7.10;3.53;;;;;;;21.58;30.92;152702.38;5091894;28;20028;-69
2023/05/27 08:35:13;;;;;;;8.57;3.50;;;;;;;21.60;31.28;152707.59;5098077;28;20042;-69
2023/05/27 08:37:39;;;;;;;4.25;2.80;;;;;;;21.37;31.07;152651.94;5100663;28;20051;-69
2023/05/27 08:40:10;;;;;;;5.38;3.03;;;;;;;21.71;32.30;152736.03;5086501;28;20059;-69
2023/05/27 08:42:36;;;;;;;10.55;3.70;;;;;;;21.45;32.87;152671.34;5086892;28;20282;-67
2023/05/27 08:45:03;;;;;;;9.27;3.00;;;;;;;21.40;33.19;152658.41;5105106;28;20305;-69
2023/05/27 08:47:32;;;;;;;3.88;3.08;;;;;;;21.41;33.97;152661.00;5093389;28;20035;-68
2023/05/27 08:49:58;;;;;;;5.05;2.55;;;;;;;21.66;33.98;152724.41;5095724;28;20316;-68
2023/05/27 08:52:26;;;;;;;5.63;2.97;;;;;;;21.69;34.22;152730.81;5102604;28;20032;-69
2023/05/27 08:54:53;;;;;;;5.32;3.10;;;;;;;21.63;34.32;152715.34;5086605;28;20020;-67
2023/05/27 08:57:24;;;;;;;5.28;3.10;;;;;;;21.79;34.81;152755.41;5106820;28;20032;-68
2023/05/27 08:59:51;;;;;;;5.68;2.72;;;;;;;21.57;34.42;152699.84;5090450;28;20036;-69
2023/05/27 09:02:20;;;;;;;5.22;3.08;;;;;;;21.93;34.36;152790.31;5085252;28;20031;-68
2023/05/27 09:04:46;;;;;;;6.03;2.90;;;;;;;22.10;34.88;152834.25;5086493;28;20037;-68
2023/05/27 09:07:12;;;;;;;4.40;3.33;;;;;;;22.24;35.86;152870.47;5089285;28;20036;-68
2023/05/27 09:09:38;;;;;;;8.27;3.40;;;;;;;22.18;35.55;152854.97;5106945;28;20353;-67
2023/05/27 09:12:05;;;;;;;10.18;4.00;;;;;;;22.00;37.24;152808.41;5088163;28;20027;-68
2023/05/27 09:14:32;;;;;;;6.80;3.78;;;;;;;22.21;36.24;152862.72;5099953;28;20036;-67
2023/05/27 09:17:05;;;;;;;5.70;3.40;;;;;;;21.80;35.31;152759.28;5097576;28;20020;-68
2023/05/27 09:19:30;;;;;;;3.53;3.03;;;;;;;21.87;35.67;152776.09;5090130;28;20138;-68
2023/05/27 09:21:56;;;;;;;8.80;3.90;;;;;;;21.95;35.97;152795.47;5106172;28;20293;-68
2023/05/27 09:24:25;;;;;;;6.53;3.13;;;;;;;21.78;35.86;152754.13;5086084;28;20087;-68
2023/05/27 09:26:52;;;;;;;6.35;3.13;;;;;;;21.87;35.92;152777.38;5102284;28;20094;-68
2023/05/27 09:29:23;;;;;;;9.02;4.55;;;;;;;22.07;37.32;152826.50;5094596;28;20198;-69
2023/05/27 09:31:48;;;;;;;8.23;3.33;;;;;;;22.08;36.61;152829.09;5093404;28;20032;-69
2023/05/27 09:34:15;;;;;;;7.68;3.63;;;;;;;21.23;35.65;152614.47;5102529;28;20202;-67
2023/05/27 09:36:45;;;;;;;4.80;2.95;;;;;;;21.70;36.27;152733.44;5084922;28;20021;-69
2023/05/27 09:39:12;;;;;;;5.95;3.38;;;;;;;21.79;35.50;152755.41;5104835;28;20040;-70
2023/05/27 09:41:38;;;;;;;6.00;3.58;;;;;;;21.72;35.61;152738.63;5085925;28;20069;-69
2023/05/27 09:44:07;;;;;;;4.93;3.33;;;;;;;21.70;37.76;152734.69;5085608;28;20201;-68
2023/05/27 09:46:34;;;;;;;4.20;3.33;;;;;;;21.94;37.68;152792.91;5091309;28;20038;-69
2023/05/27 09:49:00;;;;;;;6.05;3.90;;;;;;;21.60;36.09;152708.88;5105154;28;20035;-70
2023/05/27 09:51:27;;;;;;;6.70;3.25;;;;;;;21.76;35.80;152747.66;5084693;28;20028;-70
2023/05/27 09:53:57;;;;;;;6.70;3.50;;;;;;;21.81;35.98;152760.59;5101813;28;20066;-68
2023/05/27 09:56:25;;;;;;;8.25;3.30;;;;;;;21.75;35.11;152746.38;5093383;28;20058;-71
2023/05/27 09:58:56;;;;;;;7.55;3.83;;;;;;;22.10;36.57;152834.25;5085264;28;20119;-70
2023/05/27 10:01:25;;;;;;;7.50;3.50;;;;;;;21.86;34.32;152773.50;5085445;28;20091;-68
2023/05/27 10:03:51;;;;;;;6.60;3.65;;;;;;;21.99;36.07;152805.81;5085487;28;20368;-68
2023/05/27 10:06:18;;;;;;;7.47;3.35;;;;;;;22.21;36.50;152861.44;5103959;28;20107;-68
2023/05/27 10:08:44;;;;;;;5.13;3.47;;;;;;;22.17;38.10;152852.34;5090645;28;20056;-68
2023/05/27 10:11:13;;;;;;;4.80;3.33;;;;;;;21.92;36.14;152787.72;5095372;28;20034;-68
2023/05/27 10:13:39;;;;;;;7.50;3.83;;;;;;;22.25;37.50;152871.78;5099793;28;20029;-68
2023/05/27 10:16:06;;;;;;;6.55;3.60;;;;;;;22.14;36.35;152843.34;5086170;28;20058;-69
2023/05/27 10:18:33;;;;;;;7.47;3.80;;;;;;;22.19;36.56;152857.56;5105485;28;20101;-68
2023/05/27 10:21:03;;;;;;;4.63;3.40;;;;;;;21.84;36.74;152768.34;5081025;28;20045;-68
2023/05/27 10:23:30;;;;;;;7.00;3.53;;;;;;;22.15;37.14;152847.22;5065099;28;20020;-69
2023/05/27 10:26:06;;;;;;;6.18;3.63;;;;;;;22.13;37.63;152842.00;5064973;28;20063;-69
2023/05/27 10:28:39;;;;;;;9.98;3.72;;;;;;;21.92;37.38;152787.72;5065366;28;20060;-69
2023/05/27 10:31:14;;;;;;;5.75;3.67;;;;;;;21.99;36.54;152805.81;5063636;28;20037;-68
2023/05/27 10:33:49;;;;;;;8.32;4.03;;;;;;;21.92;37.08;152787.72;5064832;28;20088;-68
2023/05/27 10:36:24;;;;;;;6.30;3.50;;;;;;;21.76;37.24;152748.91;5064809;28;20104;-68
2023/05/27 10:39:05;;;;;;;3.83;3.05;;;;;;;22.08;38.35;152829.09;5064798;28;20345;-69
2023/05/27 10:41:41;;;;;;;4.65;2.90;;;;;;;22.06;38.36;152825.22;5064493;28;20032;-68
2023/05/27 10:44:07;;;;;;;5.93;3.08;;;;;;;21.84;36.16;152769.63;5064086;28;20313;-69
2023/05/27 10:46:43;;;;;;;6.80;3.40;;;;;;;21.77;35.94;152751.53;5063664;28;20024;-68
2023/05/27 10:49:37;;;;;;;6.60;4.20;;;;;;;21.87;36.41;152777.38;5064531;28;20079;-69
2023/05/27 10:52:12;;;;;;;7.60;3.38;;;;;;;21.74;36.37;152742.50;5064529;28;20025;-67
2023/05/27 10:54:39;;;;;;;4.63;3.13;;;;;;;21.79;36.83;152755.41;5063625;28;20051;-69
2023/05/27 10:57:06;;;;;;;4.60;3.00;;;;;;;21.75;36.99;152746.38;5064373;28;20028;-69
2023/05/27 11:00:03;;;;;;;4.68;3.33;;;;;;;21.48;35.65;152677.81;5064035;28;20056;-69
2023/05/27 11:02:36;;;;;;;11.45;3.47;;;;;;;21.62;36.64;152714.06;5067664;28;20053;-69
2023/05/27 11:05:10;;;;;;;7.93;2.78;;;;;;;21.79;36.68;152756.72;5045979;28;20040;-69
2023/05/27 11:07:42;;;;;;;4.68;2.90;;;;;;;21.75;36.11;152746.38;5059677;28;20101;-67
2023/05/27 11:10:09;;;;;;;6.18;3.25;;;;;;;21.72;35.32;152738.63;5044228;28;20071;-68
2023/05/27 11:12:35;;;;;;;4.55;3.30;;;;;;;21.62;35.38;152714.06;5064004;28;20316;-67
2023/05/27 11:15:01;;;;;;;6.25;2.83;;;;;;;21.81;34.41;152760.59;5064001;28;20021;-67
2023/05/27 11:17:27;;;;;;;7.32;3.10;;;;;;;22.00;35.22;152808.41;5063836;28;20036;-68
2023/05/27 11:19:54;;;;;;;4.82;3.10;;;;;;;21.95;35.31;152795.47;5062772;28;20029;-70
2023/05/27 11:22:20;;;;;;;6.00;3.45;;;;;;;22.03;35.58;152817.47;5062693;28;20029;-70